Impacts METAR Board
IDs:

KLAS - Las Vegas/McCarran I, NV, US

Updated at: 2000 UTC 16 Aug 2018
Potential Impact None Slight Moderate High
Time 16/08Z 16/09Z 16/10Z 16/11Z 16/12Z 16/13Z 16/14Z 16/15Z 16/16Z 16/17Z 16/18Z 16/19Z 16/20Z
Temp88 87 86 85 84 83 83 86 88 90 94 95 97
Dewpt56 56 56 56 57 58 58 58 57 58 59 60 59
Altim29.97 29.97 29.98 29.97 29.98 29.99 30.02 30.04 30.05 30.05 30.05 30.03 30.01
VIS10 10 10 10 10 10 10 10 10 10 10 10 10
CIG-- -- -- 210 210 210 -- -- -- -- -- -- --
CoverSCTFEWSCTBKNBKNBKNSCTSCTSCTSCTSCTSCTSCT
FltCatVFRVFRVFRVFRVFRVFRVFRVFRVFRVFRVFRVFRVFR
WX--------------------------
WDir40600019019017060013050070
WSpd8 6 0 0 3 3 3 4 0 4 5 4 5
WGst-- -- -- -- -- -- -- -- -- -- -- -- --
Raw hourly METARs
KLAS 160756Z 04008KT 10SM FEW120 FEW180 SCT220 31/13 A2997 RMK AO2 SLP116 T03110133 404000294
KLAS 160856Z 06006KT 10SM FEW220 31/13 A2997 RMK AO2 SLP116 T03060133 51016
KLAS 160956Z 00000KT 10SM SCT220 30/13 A2998 RMK AO2 SLP119 T03000133
KLAS 161056Z 00000KT 10SM BKN210 29/13 A2997 RMK AO2 SLP120 T02940133
KLAS 161156Z 19003KT 10SM BKN210 29/14 A2998 RMK AO2 SLP120 T02890139 10322 20289 51002
KLAS 161256Z 19003KT 10SM BKN210 28/14 A2999 RMK AO2 SLP128 T02830144
KLAS 161356Z 17003KT 10SM FEW150 SCT200 28/14 A3002 RMK AO2 SLP139 T02830144
KLAS 161456Z 06004KT 10SM FEW150 SCT200 30/14 A3004 RMK AO2 SLP143 T03000144 51020
KLAS 161556Z 00000KT 10SM FEW120 SCT200 31/14 A3005 RMK AO2 SLP146 T03110139
KLAS 161656Z 13004KT 10SM FEW120 SCT200 32/14 A3005 RMK AO2 SLP147 T03220144
KLAS 161756Z 05005KT 10SM FEW120 SCT200 34/15 A3005 RMK AO2 SLP143 CB DSNT S TCU DSNT N T03440150 10344 20278 50002
KLAS 161856Z VRB04KT 10SM FEW100 SCT150 SCT200 35/16 A3003 RMK AO2 LTG DSNT S SLP137 CB DSNT S AND NW TCU DSNT N ACC DSNT SW-W T03500156
KLAS 161956Z 07005KT 10SM FEW100 SCT150 SCT200 36/15 A3001 RMK AO2 LTG DSNT W AND NW SLP132 CB DSNT S-W ACC DSNT NE-SE T03610150



Page loaded:  20:18 UTC  |   01:18 PM Pacific  |   02:18 PM Mountain  |   03:18 PM Central  |   04:18 PM Eastern

 

ADVISORIES

FORECASTS

FORECASTS

OBSERVATIONS

USER TOOLS

ABOUT US